sensor_id;sensor_type;location;lat;lon;timestamp;temperature;humidity
43581;DHT22;29175;51.030;4.606;2022-11-15T00:00:33;11.60;99.90
43581;DHT22;29175;51.030;4.606;2022-11-15T00:03:01;11.60;99.90
43581;DHT22;29175;51.030;4.606;2022-11-15T00:05:29;11.70;99.90
43581;DHT22;29175;51.030;4.606;2022-11-15T00:07:54;11.60;99.90
43581;DHT22;29175;51.030;4.606;2022-11-15T00:10:21;11.60;99.90
43581;DHT22;29175;51.030;4.606;2022-11-15T00:12:47;11.70;99.90
43581;DHT22;29175;51.030;4.606;2022-11-15T00:15:13;11.60;99.90
43581;DHT22;29175;51.030;4.606;2022-11-15T00:17:38;11.70;99.90
43581;DHT22;29175;51.030;4.606;2022-11-15T00:20:04;11.70;99.90
43581;DHT22;29175;51.030;4.606;2022-11-15T00:22:33;11.80;99.90
43581;DHT22;29175;51.030;4.606;2022-11-15T00:25:00;11.80;99.90
43581;DHT22;29175;51.030;4.606;2022-11-15T00:27:26;11.80;99.90
43581;DHT22;29175;51.030;4.606;2022-11-15T00:29:53;11.60;99.90
43581;DHT22;29175;51.030;4.606;2022-11-15T00:32:20;11.80;99.90
43581;DHT22;29175;51.030;4.606;2022-11-15T00:34:45;11.70;99.90
43581;DHT22;29175;51.030;4.606;2022-11-15T00:37:13;11.70;99.90
43581;DHT22;29175;51.030;4.606;2022-11-15T00:39:40;11.70;99.90
43581;DHT22;29175;51.030;4.606;2022-11-15T00:42:05;11.70;99.90
43581;DHT22;29175;51.030;4.606;2022-11-15T00:44:32;11.70;99.90
43581;DHT22;29175;51.030;4.606;2022-11-15T00:46:58;11.80;99.90
43581;DHT22;29175;51.030;4.606;2022-11-15T00:49:23;11.70;99.90
43581;DHT22;29175;51.030;4.606;2022-11-15T00:51:50;11.90;99.90
43581;DHT22;29175;51.030;4.606;2022-11-15T00:54:15;12.00;99.90
43581;DHT22;29175;51.030;4.606;2022-11-15T00:56:41;12.10;99.90
43581;DHT22;29175;51.030;4.606;2022-11-15T00:59:13;12.00;99.90
43581;DHT22;29175;51.030;4.606;2022-11-15T01:01:39;12.10;99.90
43581;DHT22;29175;51.030;4.606;2022-11-15T01:04:05;12.10;99.90
43581;DHT22;29175;51.030;4.606;2022-11-15T01:06:32;12.10;99.90
43581;DHT22;29175;51.030;4.606;2022-11-15T01:08:59;12.10;99.90
43581;DHT22;29175;51.030;4.606;2022-11-15T01:11:24;12.10;99.90
43581;DHT22;29175;51.030;4.606;2022-11-15T01:13:50;12.20;99.90
43581;DHT22;29175;51.030;4.606;2022-11-15T01:16:18;12.30;99.90
43581;DHT22;29175;51.030;4.606;2022-11-15T01:18:50;12.10;99.90
43581;DHT22;29175;51.030;4.606;2022-11-15T01:21:18;12.30;99.90
43581;DHT22;29175;51.030;4.606;2022-11-15T01:23:44;12.20;99.90
43581;DHT22;29175;51.030;4.606;2022-11-15T01:26:13;12.20;99.90
43581;DHT22;29175;51.030;4.606;2022-11-15T01:28:41;12.20;99.90
43581;DHT22;29175;51.030;4.606;2022-11-15T01:31:15;12.20;99.90
43581;DHT22;29175;51.030;4.606;2022-11-15T01:33:41;12.40;99.90
43581;DHT22;29175;51.030;4.606;2022-11-15T01:36:15;12.20;99.90
43581;DHT22;29175;51.030;4.606;2022-11-15T01:38:44;12.40;99.90
43581;DHT22;29175;51.030;4.606;2022-11-15T01:41:19;12.40;99.90
43581;DHT22;29175;51.030;4.606;2022-11-15T01:43:48;12.40;99.90
43581;DHT22;29175;51.030;4.606;2022-11-15T01:46:32;12.40;99.90
43581;DHT22;29175;51.030;4.606;2022-11-15T01:49:02;12.50;99.90
43581;DHT22;29175;51.030;4.606;2022-11-15T01:51:32;12.50;99.90
43581;DHT22;29175;51.030;4.606;2022-11-15T01:54:02;12.50;99.90
43581;DHT22;29175;51.030;4.606;2022-11-15T01:56:36;12.50;99.90
43581;DHT22;29175;51.030;4.606;2022-11-15T01:59:05;12.50;99.90
43581;DHT22;29175;51.030;4.606;2022-11-15T02:01:33;12.50;99.90
43581;DHT22;29175;51.030;4.606;2022-11-15T02:04:06;12.40;99.90
43581;DHT22;29175;51.030;4.606;2022-11-15T02:06:35;12.40;99.90
43581;DHT22;29175;51.030;4.606;2022-11-15T02:09:02;12.40;99.90
43581;DHT22;29175;51.030;4.606;2022-11-15T02:11:28;12.50;99.90
43581;DHT22;29175;51.030;4.606;2022-11-15T02:13:55;12.40;99.90
43581;DHT22;29175;51.030;4.606;2022-11-15T02:30:27;12.50;99.90
43581;DHT22;29175;51.030;4.606;2022-11-15T02:33:12;12.60;99.90
43581;DHT22;29175;51.030;4.606;2022-11-15T02:36:05;12.70;99.90
43581;DHT22;29175;51.030;4.606;2022-11-15T02:38:58;12.90;99.90
43581;DHT22;29175;51.030;4.606;2022-11-15T02:41:27;12.70;99.90
43581;DHT22;29175;51.030;4.606;2022-11-15T02:47:03;12.70;99.90
43581;DHT22;29175;51.030;4.606;2022-11-15T02:49:42;12.80;99.90
43581;DHT22;29175;51.030;4.606;2022-11-15T02:52:09;12.70;99.90
43581;DHT22;29175;51.030;4.606;2022-11-15T02:54:35;12.70;99.90
43581;DHT22;29175;51.030;4.606;2022-11-15T02:57:05;12.70;99.90
43581;DHT22;29175;51.030;4.606;2022-11-15T03:07:32;12.80;99.90
43581;DHT22;29175;51.030;4.606;2022-11-15T03:12:58;12.80;99.90
43581;DHT22;29175;51.030;4.606;2022-11-15T03:15:31;12.90;99.90
43581;DHT22;29175;51.030;4.606;2022-11-15T03:20:38;12.90;99.90
43581;DHT22;29175;51.030;4.606;2022-11-15T03:23:09;12.80;99.90
43581;DHT22;29175;51.030;4.606;2022-11-15T03:25:40;12.90;99.90
43581;DHT22;29175;51.030;4.606;2022-11-15T03:28:09;12.90;99.90
43581;DHT22;29175;51.030;4.606;2022-11-15T03:30:39;12.70;99.90
43581;DHT22;29175;51.030;4.606;2022-11-15T03:33:08;12.90;99.90
43581;DHT22;29175;51.030;4.606;2022-11-15T03:35:38;12.90;99.90
43581;DHT22;29175;51.030;4.606;2022-11-15T03:38:08;13.00;99.90
43581;DHT22;29175;51.030;4.606;2022-11-15T03:40:41;13.00;99.90
43581;DHT22;29175;51.030;4.606;2022-11-15T03:43:18;12.90;99.90
43581;DHT22;29175;51.030;4.606;2022-11-15T03:45:56;12.90;99.90
43581;DHT22;29175;51.030;4.606;2022-11-15T03:48:27;12.90;99.90
43581;DHT22;29175;51.030;4.606;2022-11-15T03:50:55;12.90;99.90
43581;DHT22;29175;51.030;4.606;2022-11-15T03:53:21;13.00;99.90
43581;DHT22;29175;51.030;4.606;2022-11-15T03:55:47;12.90;99.90
43581;DHT22;29175;51.030;4.606;2022-11-15T03:58:13;12.90;99.90
43581;DHT22;29175;51.030;4.606;2022-11-15T04:00:38;13.10;99.90
43581;DHT22;29175;51.030;4.606;2022-11-15T04:03:04;13.10;99.90
43581;DHT22;29175;51.030;4.606;2022-11-15T04:05:31;13.20;99.90
43581;DHT22;29175;51.030;4.606;2022-11-15T04:07:56;13.20;99.90
43581;DHT22;29175;51.030;4.606;2022-11-15T04:10:22;13.20;99.90
43581;DHT22;29175;51.030;4.606;2022-11-15T04:12:47;13.10;99.90
43581;DHT22;29175;51.030;4.606;2022-11-15T04:15:18;12.90;99.90
43581;DHT22;29175;51.030;4.606;2022-11-15T04:17:48;12.70;99.90
43581;DHT22;29175;51.030;4.606;2022-11-15T04:20:27;12.90;99.90
43581;DHT22;29175;51.030;4.606;2022-11-15T04:26:09;13.00;99.90
43581;DHT22;29175;51.030;4.606;2022-11-15T04:28:36;13.10;99.90
43581;DHT22;29175;51.030;4.606;2022-11-15T04:31:28;13.00;99.90
43581;DHT22;29175;51.030;4.606;2022-11-15T04:33:54;13.10;99.90
43581;DHT22;29175;51.030;4.606;2022-11-15T04:36:21;13.20;99.90
43581;DHT22;29175;51.030;4.606;2022-11-15T04:39:05;13.00;99.90
43581;DHT22;29175;51.030;4.606;2022-11-15T04:41:31;13.00;99.90
43581;DHT22;29175;51.030;4.606;2022-11-15T04:43:57;13.00;99.90
43581;DHT22;29175;51.030;4.606;2022-11-15T04:46:24;13.00;99.90
43581;DHT22;29175;51.030;4.606;2022-11-15T04:48:53;13.20;99.90
43581;DHT22;29175;51.030;4.606;2022-11-15T04:51:22;13.10;99.90
43581;DHT22;29175;51.030;4.606;2022-11-15T04:53:48;13.00;99.90
43581;DHT22;29175;51.030;4.606;2022-11-15T04:56:17;13.00;99.90
43581;DHT22;29175;51.030;4.606;2022-11-15T04:58:43;13.00;99.90
43581;DHT22;29175;51.030;4.606;2022-11-15T05:01:13;13.00;99.90
43581;DHT22;29175;51.030;4.606;2022-11-15T05:03:40;13.10;99.90
43581;DHT22;29175;51.030;4.606;2022-11-15T05:06:25;12.90;99.90
43581;DHT22;29175;51.030;4.606;2022-11-15T05:08:54;12.80;99.90
43581;DHT22;29175;51.030;4.606;2022-11-15T05:11:26;12.80;99.90
43581;DHT22;29175;51.030;4.606;2022-11-15T05:13:53;12.80;99.90
43581;DHT22;29175;51.030;4.606;2022-11-15T05:16:21;12.90;99.90
43581;DHT22;29175;51.030;4.606;2022-11-15T05:18:49;13.00;99.90
43581;DHT22;29175;51.030;4.606;2022-11-15T05:21:16;13.00;99.90
43581;DHT22;29175;51.030;4.606;2022-11-15T05:23:42;13.00;99.90
43581;DHT22;29175;51.030;4.606;2022-11-15T05:26:10;13.00;99.90
43581;DHT22;29175;51.030;4.606;2022-11-15T05:28:37;12.90;99.90
43581;DHT22;29175;51.030;4.606;2022-11-15T05:31:08;12.80;99.90
43581;DHT22;29175;51.030;4.606;2022-11-15T05:33:36;12.80;99.90
43581;DHT22;29175;51.030;4.606;2022-11-15T05:38:32;12.60;99.90
43581;DHT22;29175;51.030;4.606;2022-11-15T05:41:01;12.60;99.90
43581;DHT22;29175;51.030;4.606;2022-11-15T05:43:30;12.50;99.90
43581;DHT22;29175;51.030;4.606;2022-11-15T05:45:58;12.50;99.90
43581;DHT22;29175;51.030;4.606;2022-11-15T05:48:25;12.40;99.90
43581;DHT22;29175;51.030;4.606;2022-11-15T05:50:51;12.60;99.90
43581;DHT22;29175;51.030;4.606;2022-11-15T05:53:19;12.50;99.90
43581;DHT22;29175;51.030;4.606;2022-11-15T05:55:48;12.50;99.90
43581;DHT22;29175;51.030;4.606;2022-11-15T05:58:16;12.50;99.90
43581;DHT22;29175;51.030;4.606;2022-11-15T06:00:42;12.50;99.90
43581;DHT22;29175;51.030;4.606;2022-11-15T06:03:09;12.50;99.90
43581;DHT22;29175;51.030;4.606;2022-11-15T06:05:34;12.50;99.90
43581;DHT22;29175;51.030;4.606;2022-11-15T06:08:00;12.50;99.90
43581;DHT22;29175;51.030;4.606;2022-11-15T06:10:29;12.40;99.90
43581;DHT22;29175;51.030;4.606;2022-11-15T06:15:26;12.20;99.90
43581;DHT22;29175;51.030;4.606;2022-11-15T06:17:52;12.20;99.90
43581;DHT22;29175;51.030;4.606;2022-11-15T06:20:18;12.10;99.90
43581;DHT22;29175;51.030;4.606;2022-11-15T06:22:43;12.00;99.90
43581;DHT22;29175;51.030;4.606;2022-11-15T06:25:10;12.10;99.90
43581;DHT22;29175;51.030;4.606;2022-11-15T06:27:36;12.10;99.90
43581;DHT22;29175;51.030;4.606;2022-11-15T06:30:04;12.10;99.90
43581;DHT22;29175;51.030;4.606;2022-11-15T06:32:29;12.10;99.90
43581;DHT22;29175;51.030;4.606;2022-11-15T06:34:55;12.10;99.90
43581;DHT22;29175;51.030;4.606;2022-11-15T06:37:21;12.10;99.90
43581;DHT22;29175;51.030;4.606;2022-11-15T06:39:47;12.00;99.90
43581;DHT22;29175;51.030;4.606;2022-11-15T06:42:12;12.00;99.90
43581;DHT22;29175;51.030;4.606;2022-11-15T06:44:38;11.90;99.90
43581;DHT22;29175;51.030;4.606;2022-11-15T06:47:04;11.90;99.90
43581;DHT22;29175;51.030;4.606;2022-11-15T06:49:29;11.80;99.90
43581;DHT22;29175;51.030;4.606;2022-11-15T06:51:57;11.80;99.90
43581;DHT22;29175;51.030;4.606;2022-11-15T06:54:23;11.70;99.90
43581;DHT22;29175;51.030;4.606;2022-11-15T06:56:48;11.60;99.90
43581;DHT22;29175;51.030;4.606;2022-11-15T06:59:14;11.60;99.90
43581;DHT22;29175;51.030;4.606;2022-11-15T07:01:40;11.40;99.90
43581;DHT22;29175;51.030;4.606;2022-11-15T07:04:06;11.30;99.90
43581;DHT22;29175;51.030;4.606;2022-11-15T07:06:32;11.30;99.90
43581;DHT22;29175;51.030;4.606;2022-11-15T07:08:57;11.20;99.90
43581;DHT22;29175;51.030;4.606;2022-11-15T07:11:23;11.10;99.90
43581;DHT22;29175;51.030;4.606;2022-11-15T07:13:49;11.10;99.90
43581;DHT22;29175;51.030;4.606;2022-11-15T07:16:14;11.00;99.90
43581;DHT22;29175;51.030;4.606;2022-11-15T07:18:41;11.00;99.90
43581;DHT22;29175;51.030;4.606;2022-11-15T07:21:09;11.00;99.90
43581;DHT22;29175;51.030;4.606;2022-11-15T07:23:37;11.00;99.90
43581;DHT22;29175;51.030;4.606;2022-11-15T07:26:03;11.00;99.90
43581;DHT22;29175;51.030;4.606;2022-11-15T07:28:29;11.00;99.90
43581;DHT22;29175;51.030;4.606;2022-11-15T07:30:55;11.00;99.90
43581;DHT22;29175;51.030;4.606;2022-11-15T07:33:21;10.90;99.90
43581;DHT22;29175;51.030;4.606;2022-11-15T07:35:47;10.90;99.90
43581;DHT22;29175;51.030;4.606;2022-11-15T07:38:17;10.80;99.90
43581;DHT22;29175;51.030;4.606;2022-11-15T07:40:59;10.90;99.90
43581;DHT22;29175;51.030;4.606;2022-11-15T07:43:27;10.90;99.90
43581;DHT22;29175;51.030;4.606;2022-11-15T07:45:53;10.70;99.90
43581;DHT22;29175;51.030;4.606;2022-11-15T07:48:21;11.00;99.90
43581;DHT22;29175;51.030;4.606;2022-11-15T07:50:47;10.90;99.90
43581;DHT22;29175;51.030;4.606;2022-11-15T07:53:15;11.00;99.90
43581;DHT22;29175;51.030;4.606;2022-11-15T07:55:44;11.30;99.90
43581;DHT22;29175;51.030;4.606;2022-11-15T07:58:11;11.40;99.90
43581;DHT22;29175;51.030;4.606;2022-11-15T08:00:38;11.30;99.90
43581;DHT22;29175;51.030;4.606;2022-11-15T08:03:11;11.30;99.90
43581;DHT22;29175;51.030;4.606;2022-11-15T08:05:39;11.30;99.90
43581;DHT22;29175;51.030;4.606;2022-11-15T08:08:05;11.40;99.90
43581;DHT22;29175;51.030;4.606;2022-11-15T08:10:34;11.20;99.90
43581;DHT22;29175;51.030;4.606;2022-11-15T08:13:09;11.50;99.90
43581;DHT22;29175;51.030;4.606;2022-11-15T08:15:38;11.50;99.90
43581;DHT22;29175;51.030;4.606;2022-11-15T08:18:06;11.50;99.90
43581;DHT22;29175;51.030;4.606;2022-11-15T08:20:32;11.40;99.90
43581;DHT22;29175;51.030;4.606;2022-11-15T08:23:01;11.40;99.90
43581;DHT22;29175;51.030;4.606;2022-11-15T08:25:28;11.60;99.90
43581;DHT22;29175;51.030;4.606;2022-11-15T08:27:57;11.60;99.90
43581;DHT22;29175;51.030;4.606;2022-11-15T08:30:26;11.70;99.90
43581;DHT22;29175;51.030;4.606;2022-11-15T08:32:53;11.90;99.90
43581;DHT22;29175;51.030;4.606;2022-11-15T08:35:22;12.00;99.90
43581;DHT22;29175;51.030;4.606;2022-11-15T08:37:52;12.10;99.90
43581;DHT22;29175;51.030;4.606;2022-11-15T08:40:18;12.10;99.90
43581;DHT22;29175;51.030;4.606;2022-11-15T08:42:47;12.20;99.90
43581;DHT22;29175;51.030;4.606;2022-11-15T08:45:16;12.10;99.90
43581;DHT22;29175;51.030;4.606;2022-11-15T08:47:45;12.30;99.90
43581;DHT22;29175;51.030;4.606;2022-11-15T08:50:11;12.20;99.90
43581;DHT22;29175;51.030;4.606;2022-11-15T08:52:37;12.20;99.90
43581;DHT22;29175;51.030;4.606;2022-11-15T08:55:05;12.30;99.90
43581;DHT22;29175;51.030;4.606;2022-11-15T08:57:31;12.30;99.90
43581;DHT22;29175;51.030;4.606;2022-11-15T09:00:00;12.30;99.90
43581;DHT22;29175;51.030;4.606;2022-11-15T09:02:25;12.40;99.90
43581;DHT22;29175;51.030;4.606;2022-11-15T09:04:51;12.50;99.90
43581;DHT22;29175;51.030;4.606;2022-11-15T09:07:19;12.80;99.90
43581;DHT22;29175;51.030;4.606;2022-11-15T09:09:46;13.00;99.90
43581;DHT22;29175;51.030;4.606;2022-11-15T09:12:14;13.10;99.90
43581;DHT22;29175;51.030;4.606;2022-11-15T09:14:42;13.10;99.90
43581;DHT22;29175;51.030;4.606;2022-11-15T09:17:08;13.20;99.90
43581;DHT22;29175;51.030;4.606;2022-11-15T09:19:34;13.40;99.90
43581;DHT22;29175;51.030;4.606;2022-11-15T09:22:01;13.40;99.90
43581;DHT22;29175;51.030;4.606;2022-11-15T09:24:26;13.30;99.90
43581;DHT22;29175;51.030;4.606;2022-11-15T09:26:52;13.30;99.90
43581;DHT22;29175;51.030;4.606;2022-11-15T09:29:18;13.50;99.90
43581;DHT22;29175;51.030;4.606;2022-11-15T09:31:47;13.60;99.90
43581;DHT22;29175;51.030;4.606;2022-11-15T09:34:13;13.30;99.90
43581;DHT22;29175;51.030;4.606;2022-11-15T09:36:40;13.40;99.90
43581;DHT22;29175;51.030;4.606;2022-11-15T09:39:09;13.40;99.90
43581;DHT22;29175;51.030;4.606;2022-11-15T09:44:47;13.30;99.90
43581;DHT22;29175;51.030;4.606;2022-11-15T09:49:54;13.60;99.90
43581;DHT22;29175;51.030;4.606;2022-11-15T09:52:21;14.00;99.90
43581;DHT22;29175;51.030;4.606;2022-11-15T09:54:49;14.00;99.90
43581;DHT22;29175;51.030;4.606;2022-11-15T09:57:30;14.10;99.90
43581;DHT22;29175;51.030;4.606;2022-11-15T10:05:20;14.50;99.90
43581;DHT22;29175;51.030;4.606;2022-11-15T10:08:11;14.10;99.90
43581;DHT22;29175;51.030;4.606;2022-11-15T10:10:46;14.50;99.90
43581;DHT22;29175;51.030;4.606;2022-11-15T10:13:36;14.70;99.90
43581;DHT22;29175;51.030;4.606;2022-11-15T10:16:12;14.00;99.90
43581;DHT22;29175;51.030;4.606;2022-11-15T10:24:22;14.30;99.90
43581;DHT22;29175;51.030;4.606;2022-11-15T10:26:50;14.30;99.90
43581;DHT22;29175;51.030;4.606;2022-11-15T10:29:21;14.50;99.90
43581;DHT22;29175;51.030;4.606;2022-11-15T10:31:49;14.50;99.90
43581;DHT22;29175;51.030;4.606;2022-11-15T10:34:19;14.40;99.90
43581;DHT22;29175;51.030;4.606;2022-11-15T10:36:57;14.40;99.90
43581;DHT22;29175;51.030;4.606;2022-11-15T10:39:26;14.80;99.90
43581;DHT22;29175;51.030;4.606;2022-11-15T10:41:52;14.80;99.90
43581;DHT22;29175;51.030;4.606;2022-11-15T10:44:41;15.00;99.90
43581;DHT22;29175;51.030;4.606;2022-11-15T10:47:23;15.20;99.90
43581;DHT22;29175;51.030;4.606;2022-11-15T10:50:27;15.10;99.90
43581;DHT22;29175;51.030;4.606;2022-11-15T10:52:53;15.20;99.90
43581;DHT22;29175;51.030;4.606;2022-11-15T10:55:26;15.20;99.90
43581;DHT22;29175;51.030;4.606;2022-11-15T10:58:05;14.90;99.90
43581;DHT22;29175;51.030;4.606;2022-11-15T11:00:38;14.90;99.90
43581;DHT22;29175;51.030;4.606;2022-11-15T11:03:35;14.80;99.90
43581;DHT22;29175;51.030;4.606;2022-11-15T11:06:19;14.90;99.90
43581;DHT22;29175;51.030;4.606;2022-11-15T11:09:03;15.00;99.90
43581;DHT22;29175;51.030;4.606;2022-11-15T11:11:48;15.20;99.90
43581;DHT22;29175;51.030;4.606;2022-11-15T11:16:53;15.40;99.90
43581;DHT22;29175;51.030;4.606;2022-11-15T11:22:30;15.00;99.90
43581;DHT22;29175;51.030;4.606;2022-11-15T11:30:23;15.40;99.90
43581;DHT22;29175;51.030;4.606;2022-11-15T11:35:43;15.40;99.90
43581;DHT22;29175;51.030;4.606;2022-11-15T11:43:41;15.30;99.90
43581;DHT22;29175;51.030;4.606;2022-11-15T11:48:43;15.30;99.90
43581;DHT22;29175;51.030;4.606;2022-11-15T11:51:27;15.50;99.90
43581;DHT22;29175;51.030;4.606;2022-11-15T11:56:39;15.50;99.90
43581;DHT22;29175;51.030;4.606;2022-11-15T11:59:22;15.50;99.90
43581;DHT22;29175;51.030;4.606;2022-11-15T12:01:48;15.80;99.90
43581;DHT22;29175;51.030;4.606;2022-11-15T12:04:30;15.80;99.90
43581;DHT22;29175;51.030;4.606;2022-11-15T12:07:31;15.70;99.90
43581;DHT22;29175;51.030;4.606;2022-11-15T12:17:36;15.80;99.90
43581;DHT22;29175;51.030;4.606;2022-11-15T12:20:18;15.70;99.90
43581;DHT22;29175;51.030;4.606;2022-11-15T12:33:37;15.60;99.90
43581;DHT22;29175;51.030;4.606;2022-11-15T12:39:04;15.80;99.90
43581;DHT22;29175;51.030;4.606;2022-11-15T12:41:34;15.70;99.90
43581;DHT22;29175;51.030;4.606;2022-11-15T12:44:01;15.60;99.90
43581;DHT22;29175;51.030;4.606;2022-11-15T12:59:56;15.30;99.90
43581;DHT22;29175;51.030;4.606;2022-11-15T13:02:37;15.30;99.90
43581;DHT22;29175;51.030;4.606;2022-11-15T13:10:32;15.20;99.90
43581;DHT22;29175;51.030;4.606;2022-11-15T13:13:02;15.40;99.90
43581;DHT22;29175;51.030;4.606;2022-11-15T13:15:37;15.40;99.90
43581;DHT22;29175;51.030;4.606;2022-11-15T13:18:32;15.70;99.90
43581;DHT22;29175;51.030;4.606;2022-11-15T13:20:59;15.80;99.90
43581;DHT22;29175;51.030;4.606;2022-11-15T13:23:25;15.70;99.90
43581;DHT22;29175;51.030;4.606;2022-11-15T13:26:13;15.80;99.90
43581;DHT22;29175;51.030;4.606;2022-11-15T13:28:44;15.70;99.90
43581;DHT22;29175;51.030;4.606;2022-11-15T13:31:17;15.50;99.90
43581;DHT22;29175;51.030;4.606;2022-11-15T13:33:44;15.60;99.90
43581;DHT22;29175;51.030;4.606;2022-11-15T13:36:29;15.90;99.90
43581;DHT22;29175;51.030;4.606;2022-11-15T13:39:04;15.80;99.90
43581;DHT22;29175;51.030;4.606;2022-11-15T13:41:35;15.70;99.90
43581;DHT22;29175;51.030;4.606;2022-11-15T13:44:02;15.80;99.90
43581;DHT22;29175;51.030;4.606;2022-11-15T13:46:30;15.80;99.90
43581;DHT22;29175;51.030;4.606;2022-11-15T13:49:03;15.60;99.90
43581;DHT22;29175;51.030;4.606;2022-11-15T13:51:34;15.50;99.90
43581;DHT22;29175;51.030;4.606;2022-11-15T13:54:30;15.50;99.90
43581;DHT22;29175;51.030;4.606;2022-11-15T13:57:10;15.60;99.90
43581;DHT22;29175;51.030;4.606;2022-11-15T13:59:44;15.40;99.90
43581;DHT22;29175;51.030;4.606;2022-11-15T14:02:32;15.40;99.90
43581;DHT22;29175;51.030;4.606;2022-11-15T14:05:18;15.30;99.90
43581;DHT22;29175;51.030;4.606;2022-11-15T14:07:57;15.40;99.90
43581;DHT22;29175;51.030;4.606;2022-11-15T14:10:35;15.20;99.90
43581;DHT22;29175;51.030;4.606;2022-11-15T14:13:03;15.20;99.90
43581;DHT22;29175;51.030;4.606;2022-11-15T14:15:37;15.20;99.90
43581;DHT22;29175;51.030;4.606;2022-11-15T14:18:05;15.20;99.90
43581;DHT22;29175;51.030;4.606;2022-11-15T14:20:32;15.30;99.90
43581;DHT22;29175;51.030;4.606;2022-11-15T14:23:01;15.20;99.90
43581;DHT22;29175;51.030;4.606;2022-11-15T14:25:29;15.20;99.90
43581;DHT22;29175;51.030;4.606;2022-11-15T14:28:29;15.20;99.90
43581;DHT22;29175;51.030;4.606;2022-11-15T14:30:57;15.10;99.90
43581;DHT22;29175;51.030;4.606;2022-11-15T14:33:30;15.40;99.90
43581;DHT22;29175;51.030;4.606;2022-11-15T14:36:02;15.20;99.90
43581;DHT22;29175;51.030;4.606;2022-11-15T14:38:28;15.20;99.90
43581;DHT22;29175;51.030;4.606;2022-11-15T14:40:54;15.20;99.90
43581;DHT22;29175;51.030;4.606;2022-11-15T14:43:24;15.10;99.90
43581;DHT22;29175;51.030;4.606;2022-11-15T14:45:51;15.00;99.90
43581;DHT22;29175;51.030;4.606;2022-11-15T14:48:16;15.00;99.90
43581;DHT22;29175;51.030;4.606;2022-11-15T14:50:42;14.90;99.90
43581;DHT22;29175;51.030;4.606;2022-11-15T14:53:12;14.90;99.90
43581;DHT22;29175;51.030;4.606;2022-11-15T14:55:39;14.90;99.90
43581;DHT22;29175;51.030;4.606;2022-11-15T14:58:06;14.80;99.90
43581;DHT22;29175;51.030;4.606;2022-11-15T15:00:38;15.00;99.90
43581;DHT22;29175;51.030;4.606;2022-11-15T15:03:05;14.80;99.90
43581;DHT22;29175;51.030;4.606;2022-11-15T15:05:33;14.60;99.90
43581;DHT22;29175;51.030;4.606;2022-11-15T15:07:59;14.50;99.90
43581;DHT22;29175;51.030;4.606;2022-11-15T15:10:37;14.50;99.90
43581;DHT22;29175;51.030;4.606;2022-11-15T15:13:18;14.50;99.90
43581;DHT22;29175;51.030;4.606;2022-11-15T15:15:43;14.50;99.90
43581;DHT22;29175;51.030;4.606;2022-11-15T15:18:09;14.40;99.90
43581;DHT22;29175;51.030;4.606;2022-11-15T15:20:41;14.30;99.90
43581;DHT22;29175;51.030;4.606;2022-11-15T15:23:18;14.40;99.90
43581;DHT22;29175;51.030;4.606;2022-11-15T15:25:47;14.40;99.90
43581;DHT22;29175;51.030;4.606;2022-11-15T15:28:17;14.40;99.90
43581;DHT22;29175;51.030;4.606;2022-11-15T15:30:44;14.20;99.90
43581;DHT22;29175;51.030;4.606;2022-11-15T15:33:12;14.20;99.90
43581;DHT22;29175;51.030;4.606;2022-11-15T15:35:44;14.30;99.90
43581;DHT22;29175;51.030;4.606;2022-11-15T15:38:11;14.30;99.90
43581;DHT22;29175;51.030;4.606;2022-11-15T15:40:38;14.10;99.90
43581;DHT22;29175;51.030;4.606;2022-11-15T15:43:06;14.10;99.90
43581;DHT22;29175;51.030;4.606;2022-11-15T15:45:37;14.10;99.90
43581;DHT22;29175;51.030;4.606;2022-11-15T15:48:15;14.00;99.90
43581;DHT22;29175;51.030;4.606;2022-11-15T15:50:43;14.00;99.90
43581;DHT22;29175;51.030;4.606;2022-11-15T15:53:11;14.10;99.90
43581;DHT22;29175;51.030;4.606;2022-11-15T15:55:38;14.20;99.90
43581;DHT22;29175;51.030;4.606;2022-11-15T15:58:04;14.00;99.90
43581;DHT22;29175;51.030;4.606;2022-11-15T16:00:31;14.00;99.90
43581;DHT22;29175;51.030;4.606;2022-11-15T16:03:00;13.80;99.90
43581;DHT22;29175;51.030;4.606;2022-11-15T16:05:27;13.80;99.90
43581;DHT22;29175;51.030;4.606;2022-11-15T16:07:53;13.80;99.90
43581;DHT22;29175;51.030;4.606;2022-11-15T16:12:46;14.00;99.90
43581;DHT22;29175;51.030;4.606;2022-11-15T16:15:12;14.00;99.90
43581;DHT22;29175;51.030;4.606;2022-11-15T16:17:40;13.90;99.90
43581;DHT22;29175;51.030;4.606;2022-11-15T16:20:15;13.90;99.90
43581;DHT22;29175;51.030;4.606;2022-11-15T16:22:47;13.70;99.90
43581;DHT22;29175;51.030;4.606;2022-11-15T16:25:14;13.70;99.90
43581;DHT22;29175;51.030;4.606;2022-11-15T16:27:40;13.50;99.90
43581;DHT22;29175;51.030;4.606;2022-11-15T16:30:14;13.60;99.90
43581;DHT22;29175;51.030;4.606;2022-11-15T16:32:42;13.60;99.90
43581;DHT22;29175;51.030;4.606;2022-11-15T16:35:14;13.50;99.90
43581;DHT22;29175;51.030;4.606;2022-11-15T16:37:41;13.60;99.90
43581;DHT22;29175;51.030;4.606;2022-11-15T16:40:30;13.60;99.90
43581;DHT22;29175;51.030;4.606;2022-11-15T16:42:56;13.60;99.90
43581;DHT22;29175;51.030;4.606;2022-11-15T16:45:23;13.50;99.90
43581;DHT22;29175;51.030;4.606;2022-11-15T16:47:49;13.60;99.90
43581;DHT22;29175;51.030;4.606;2022-11-15T16:50:24;13.50;99.90
43581;DHT22;29175;51.030;4.606;2022-11-15T16:52:53;13.70;99.90
43581;DHT22;29175;51.030;4.606;2022-11-15T16:55:19;13.60;99.90
43581;DHT22;29175;51.030;4.606;2022-11-15T16:57:45;13.50;99.90
43581;DHT22;29175;51.030;4.606;2022-11-15T17:00:11;13.70;99.90
43581;DHT22;29175;51.030;4.606;2022-11-15T17:02:42;13.50;99.90
43581;DHT22;29175;51.030;4.606;2022-11-15T17:05:08;13.50;99.90
43581;DHT22;29175;51.030;4.606;2022-11-15T17:07:35;13.50;99.90
43581;DHT22;29175;51.030;4.606;2022-11-15T17:10:00;13.40;99.90
43581;DHT22;29175;51.030;4.606;2022-11-15T17:12:26;13.40;99.90
43581;DHT22;29175;51.030;4.606;2022-11-15T17:14:52;13.50;99.90
43581;DHT22;29175;51.030;4.606;2022-11-15T17:17:19;13.60;99.90
43581;DHT22;29175;51.030;4.606;2022-11-15T17:19:47;13.50;99.90
43581;DHT22;29175;51.030;4.606;2022-11-15T17:22:15;13.80;99.90
43581;DHT22;29175;51.030;4.606;2022-11-15T17:24:41;13.60;99.90
43581;DHT22;29175;51.030;4.606;2022-11-15T17:27:07;13.70;99.90
43581;DHT22;29175;51.030;4.606;2022-11-15T17:29:33;13.70;99.90
43581;DHT22;29175;51.030;4.606;2022-11-15T17:32:00;13.60;99.90
43581;DHT22;29175;51.030;4.606;2022-11-15T17:34:26;13.60;99.90
43581;DHT22;29175;51.030;4.606;2022-11-15T17:36:51;13.70;99.90
43581;DHT22;29175;51.030;4.606;2022-11-15T17:39:20;13.70;99.90
43581;DHT22;29175;51.030;4.606;2022-11-15T17:41:51;13.80;99.90
43581;DHT22;29175;51.030;4.606;2022-11-15T17:44:17;13.80;99.90
43581;DHT22;29175;51.030;4.606;2022-11-15T17:46:45;13.80;99.90
43581;DHT22;29175;51.030;4.606;2022-11-15T17:49:12;13.70;99.90